Time;durP1;ratioP1;P1;durP2;ratioP2;P2;SDS_P1;SDS_P2;PMS_P1;PMS_P2;Temp;Humidity;BMP_temperature;BMP_pressure;BME280_temperature;BME280_humidity;BME280_pressure;Samples;Min_cycle;Max_cycle;Signal;HPM_P1;HPM_P2
2021/09/02 00:04:35;;;;;;;6.17;3.57;;;;;;;15.37;75.53;101494.78;5161536;57;22089;-86
2021/09/02 00:09:41;;;;;;;8.30;4.83;;;;;;;15.33;75.37;101491.15;5162034;57;21222;-86
2021/09/02 00:14:47;;;;;;;10.77;5.23;;;;;;;15.30;75.42;101492.73;5162169;57;22171;-87
2021/09/02 00:19:53;;;;;;;9.03;4.70;;;;;;;15.31;75.77;101489.94;5162048;57;21121;-88
2021/09/02 00:24:59;;;;;;;10.63;3.93;;;;;;;15.31;75.63;101487.76;5161723;57;21669;-88
2021/09/02 00:30:06;;;;;;;5.33;3.53;;;;;;;15.23;75.38;101490.22;5161365;57;22143;-86
2021/09/02 00:35:13;;;;;;;5.80;3.90;;;;;;;15.02;75.15;101484.32;5172382;57;21227;-87
2021/09/02 00:40:19;;;;;;;9.70;4.03;;;;;;;14.97;75.58;101490.50;5173704;57;21125;-85
2021/09/02 00:45:24;;;;;;;10.60;4.63;;;;;;;14.98;75.77;101489.52;5173871;57;21167;-85
2021/09/02 00:50:32;;;;;;;6.73;4.23;;;;;;;14.94;75.52;101505.42;5173968;57;21536;-85
2021/09/02 00:55:38;;;;;;;8.03;4.40;;;;;;;14.77;75.48;101500.59;5173651;57;21155;-87
2021/09/02 01:00:43;;;;;;;4.27;3.23;;;;;;;14.75;76.05;101505.19;5161501;57;21170;-86
2021/09/02 01:05:52;;;;;;;6.20;4.33;;;;;;;14.55;75.67;101501.42;5114520;57;21186;-86
2021/09/02 01:10:59;;;;;;;11.27;6.67;;;;;;;14.34;75.62;101516.39;5156785;57;21222;-87
2021/09/02 01:16:05;;;;;;;11.20;6.37;;;;;;;14.17;75.95;101515.52;5156653;57;21165;-85
2021/09/02 01:21:12;;;;;;;10.60;5.20;;;;;;;14.12;76.83;101520.33;5156678;57;21174;-87
2021/09/02 01:26:21;;;;;;;15.97;5.27;;;;;;;14.21;77.53;101507.64;5156650;57;21537;-86
2021/09/02 01:31:27;;;;;;;10.80;4.90;;;;;;;14.28;77.54;101506.21;5156457;57;21171;-86
2021/09/02 01:36:33;;;;;;;9.40;5.30;;;;;;;14.31;77.06;101504.66;5133466;58;21218;-87
2021/09/02 01:41:39;;;;;;;34.20;14.40;;;;;;;14.31;76.88;101505.50;5133368;58;21120;-86
2021/09/02 01:46:45;;;;;;;19.97;9.90;;;;;;;14.37;77.26;101509.48;5133496;58;21199;-87
2021/09/02 01:51:51;;;;;;;18.73;8.40;;;;;;;14.35;77.18;101507.45;5133282;58;21712;-86
2021/09/02 01:56:57;;;;;;;49.43;21.90;;;;;;;14.29;76.93;101506.09;5133562;58;21171;-86
2021/09/02 02:02:03;;;;;;;15.10;8.13;;;;;;;14.24;76.97;101508.73;5161015;57;21192;-86
2021/09/02 02:07:09;;;;;;;24.77;10.47;;;;;;;14.23;76.83;101503.05;5161492;57;21551;-86
2021/09/02 02:12:15;;;;;;;7.53;4.63;;;;;;;14.22;76.80;101502.69;5161346;57;21475;-86
2021/09/02 02:17:21;;;;;;;9.27;4.60;;;;;;;14.22;76.97;101503.53;5161153;57;21180;-85
2021/09/02 02:22:26;;;;;;;7.03;4.30;;;;;;;14.21;77.10;101503.16;5161360;57;21174;-86
2021/09/02 02:27:33;;;;;;;7.40;4.90;;;;;;;14.16;76.77;101496.52;5161942;57;21577;-86
2021/09/02 02:32:39;;;;;;;4.97;3.70;;;;;;;14.08;76.69;101499.27;5161917;57;21550;-86
2021/09/02 02:37:45;;;;;;;8.77;4.43;;;;;;;14.03;76.46;101496.14;5161998;57;21639;-85
2021/09/02 02:42:53;;;;;;;10.33;4.47;;;;;;;13.99;76.72;101501.80;5162072;57;21237;-86
2021/09/02 02:47:59;;;;;;;13.40;4.23;;;;;;;14.00;76.95;101501.69;5162286;57;21168;-86
2021/09/02 02:53:05;;;;;;;8.57;4.43;;;;;;;13.94;76.60;101503.47;5161838;57;21225;-86
2021/09/02 02:58:11;;;;;;;9.30;4.20;;;;;;;13.79;76.37;101495.80;5156057;57;21713;-86
2021/09/02 03:03:17;;;;;;;10.37;5.10;;;;;;;13.70;76.71;101495.55;5133824;58;21151;-86
2021/09/02 03:08:24;;;;;;;11.93;4.63;;;;;;;13.70;76.96;101493.38;5133859;58;21112;-86
2021/09/02 03:13:29;;;;;;;7.37;4.63;;;;;;;13.71;76.93;101491.93;5133767;58;21566;-86
2021/09/02 03:18:35;;;;;;;10.03;5.00;;;;;;;13.58;76.17;101486.33;5133770;58;21601;-86
2021/09/02 03:23:41;;;;;;;8.57;4.83;;;;;;;13.43;76.75;101492.78;5123794;57;21225;-85
2021/09/02 03:28:47;;;;;;;9.10;4.40;;;;;;;13.24;76.75;101483.98;5107066;57;21174;-85
2021/09/02 03:33:53;;;;;;;10.37;4.93;;;;;;;13.20;77.59;101490.47;5060464;57;21187;-85
2021/09/02 03:38:58;;;;;;;8.07;4.77;;;;;;;13.25;77.64;101492.32;5077814;58;21174;-86
2021/09/02 03:44:05;;;;;;;13.30;4.90;;;;;;;13.28;77.74;101493.43;5078168;58;21569;-85
2021/09/02 03:49:11;;;;;;;13.03;4.90;;;;;;;13.31;77.85;101494.03;5078429;58;21210;-85
2021/09/02 03:54:16;;;;;;;5.73;4.63;;;;;;;13.33;78.03;101500.56;5079467;58;21227;-88
2021/09/02 03:59:22;;;;;;;15.53;7.17;;;;;;;13.13;77.60;101507.32;5072589;58;21238;-87
2021/09/02 04:04:28;;;;;;;8.93;4.30;;;;;;;12.84;77.65;101508.06;4977153;59;21178;-87
2021/09/02 04:09:34;;;;;;;6.33;4.27;;;;;;;12.62;78.12;101512.73;5074325;58;21169;-88
2021/09/02 04:14:40;;;;;;;16.43;4.77;;;;;;;12.57;78.84;101509.54;4977731;59;21178;-87
2021/09/02 04:19:46;;;;;;;6.50;4.77;;;;;;;12.54;79.06;101513.73;4982021;59;21193;-89
2021/09/02 04:24:52;;;;;;;9.67;4.83;;;;;;;12.55;79.68;101514.58;5075265;58;21679;-91
2021/09/02 04:29:58;;;;;;;8.70;6.63;;;;;;;12.59;79.96;101513.41;4975757;59;21179;-91
2021/09/02 04:35:04;;;;;;;10.23;5.73;;;;;;;12.71;80.30;101515.67;5055319;58;21486;-86
2021/09/02 04:40:13;;;;;;;6.63;4.93;;;;;;;12.81;80.17;101512.28;4960292;60;21179;-87
2021/09/02 04:45:19;;;;;;;7.53;5.57;;;;;;;12.95;80.45;101520.11;4955838;60;21178;-90
2021/09/02 04:50:25;;;;;;;11.13;5.50;;;;;;;12.92;80.08;101513.69;4960025;60;21174;-86
2021/09/02 04:55:32;;;;;;;6.57;4.37;;;;;;;12.85;80.04;101512.41;4955982;60;21127;-87
2021/09/02 05:00:39;;;;;;;7.67;4.73;;;;;;;12.65;79.87;101523.14;4963168;60;21195;-89
2021/09/02 05:05:45;;;;;;;6.60;4.60;;;;;;;12.52;80.33;101516.14;5036485;59;21219;-89
2021/09/02 05:10:52;;;;;;;8.60;5.87;;;;;;;12.43;80.94;101522.92;5032872;59;21171;-87
2021/09/02 05:15:58;;;;;;;9.77;5.70;;;;;;;12.32;81.28;101530.31;5032975;59;21163;-89
2021/09/02 05:21:04;;;;;;;9.10;4.93;;;;;;;12.30;82.06;101528.23;5021603;59;21525;-82
2021/09/02 05:26:09;;;;;;;9.53;5.50;;;;;;;12.30;82.45;101526.05;4950842;60;21544;-81
2021/09/02 05:31:15;;;;;;;8.57;6.60;;;;;;;12.24;83.15;101526.46;4950864;60;21218;-81
2021/09/02 05:36:21;;;;;;;9.40;5.30;;;;;;;12.32;84.05;101526.80;4951285;58;21205;-80
2021/09/02 05:41:28;;;;;;;7.43;5.67;;;;;;;12.46;84.87;101525.84;4950791;60;21178;-81
2021/09/02 05:46:33;;;;;;;20.67;6.20;;;;;;;12.48;85.35;101530.58;4950911;60;21726;-81
2021/09/02 05:51:39;;;;;;;6.63;5.63;;;;;;;12.59;85.55;101535.97;4950911;60;22158;-80
2021/09/02 05:56:45;;;;;;;11.63;6.93;;;;;;;12.70;85.42;101540.05;4950778;60;22162;-80
2021/09/02 06:01:52;;;;;;;13.07;6.70;;;;;;;12.72;85.69;101537.28;4940820;60;21201;-82
2021/09/02 06:06:57;;;;;;;13.17;6.73;;;;;;;12.75;86.17;101543.23;4940151;60;21173;-81
2021/09/02 06:12:03;;;;;;;12.27;6.97;;;;;;;12.89;86.91;101532.97;4940133;60;21235;-82
2021/09/02 06:17:08;;;;;;;13.17;7.47;;;;;;;13.03;87.64;101543.45;4940179;60;21177;-82
2021/09/02 06:22:14;;;;;;;8.77;6.33;;;;;;;13.23;87.75;101551.35;4940187;60;21209;-83
2021/09/02 06:27:21;;;;;;;9.73;6.90;;;;;;;13.47;88.11;101547.38;4940155;60;21170;-81
2021/09/02 06:32:26;;;;;;;20.40;9.30;;;;;;;13.69;88.39;101545.70;4940202;60;21221;-83
2021/09/02 06:37:32;;;;;;;22.47;9.27;;;;;;;13.95;88.97;101556.19;4955857;59;21117;-82
2021/09/02 06:42:38;;;;;;;18.07;8.70;;;;;;;14.17;89.11;101552.77;5116569;57;21206;-81
2021/09/02 06:47:45;;;;;;;9.93;6.50;;;;;;;14.38;89.42;101550.61;5130735;57;21188;-82
2021/09/02 06:52:58;;;;;;;10.43;5.00;;;;;;;14.53;89.10;101547.28;5130948;57;21074;-82
2021/09/02 06:58:11;;;;;;;11.40;5.60;;;;;;;14.77;89.05;101551.19;5124273;57;21076;-84
2021/09/02 07:03:17;;;;;;;7.77;4.90;;;;;;;14.97;87.84;101546.44;5128105;57;21161;-83
2021/09/02 07:08:25;;;;;;;8.60;4.77;;;;;;;15.15;87.26;101552.12;5102533;57;21203;-85
2021/09/02 07:13:31;;;;;;;7.40;4.83;;;;;;;15.35;86.80;101550.52;5085543;57;21113;-83
2021/09/02 07:18:36;;;;;;;8.70;4.50;;;;;;;15.55;86.13;101547.56;5085567;57;21228;-85
2021/09/02 07:23:43;;;;;;;7.03;5.20;;;;;;;15.74;86.37;101547.27;5085602;57;21539;-84
2021/09/02 07:28:49;;;;;;;7.47;5.13;;;;;;;16.04;86.11;101555.86;5085534;57;21168;-83
2021/09/02 07:33:55;;;;;;;10.70;5.43;;;;;;;16.24;84.57;101563.53;5085478;57;21165;-84
2021/09/02 07:39:01;;;;;;;8.17;5.93;;;;;;;16.40;84.43;101556.39;5064929;57;21203;-82
2021/09/02 07:44:07;;;;;;;7.07;5.07;;;;;;;16.64;84.34;101559.67;5055264;57;21173;-83
2021/09/02 07:49:13;;;;;;;8.77;4.93;;;;;;;16.86;83.19;101562.16;5055300;57;22119;-82
2021/09/02 07:54:19;;;;;;;7.00;4.83;;;;;;;17.01;81.84;101573.33;5055162;57;21173;-84
2021/09/02 07:59:24;;;;;;;6.73;4.73;;;;;;;17.20;81.02;101568.55;5092322;57;21156;-85
2021/09/02 08:04:31;;;;;;;7.07;4.13;;;;;;;17.38;80.09;101572.75;5135914;57;21188;-83
2021/09/02 08:09:36;;;;;;;5.93;5.00;;;;;;;17.52;80.18;101573.69;5137895;57;21165;-84
2021/09/02 08:14:42;;;;;;;9.93;5.73;;;;;;;17.82;80.10;101570.09;5137946;57;21612;-83
2021/09/02 08:19:48;;;;;;;6.50;4.07;;;;;;;18.06;78.68;101574.52;5137961;57;21477;-84
2021/09/02 08:24:54;;;;;;;6.17;4.20;;;;;;;18.27;78.18;101576.55;5137726;57;21153;-83
2021/09/02 08:30:00;;;;;;;8.33;5.23;;;;;;;18.46;75.47;101575.67;5138075;57;21230;-81
2021/09/02 08:35:06;;;;;;;6.60;5.13;;;;;;;18.54;76.11;101568.24;5137665;57;21161;-82
2021/09/02 08:40:12;;;;;;;4.57;4.17;;;;;;;18.60;73.03;101567.70;5137541;57;21249;-82
2021/09/02 08:45:18;;;;;;;6.03;4.17;;;;;;;18.77;72.15;101576.33;5137449;57;21178;-82
2021/09/02 08:50:28;;;;;;;8.70;5.10;;;;;;;18.95;74.09;101576.37;5137620;57;21166;-83
2021/09/02 08:55:35;;;;;;;7.65;4.47;;;;;;;19.19;73.39;101574.52;5137603;57;21161;-82
2021/09/02 09:00:41;;;;;;;4.75;4.15;;;;;;;19.30;70.93;101571.63;5081995;57;21204;-84
2021/09/02 09:06:06;;;;;;;5.28;3.50;;;;;;;19.47;71.47;101568.14;5054859;58;21192;-84
2021/09/02 09:11:30;;;;;;;8.30;3.80;;;;;;;19.59;68.94;101562.08;5054717;58;21611;-83
2021/09/02 09:16:53;;;;;;;4.42;3.47;;;;;;;19.75;69.94;101566.77;5135626;57;21193;-83
2021/09/02 09:21:59;;;;;;;;;;;;;;;19.88;68.72;101558.67;5141412;57;21509;-82
2021/09/02 09:27:11;;;;;;;3.10;2.90;;;;;;;20.09;66.60;101563.73;5137692;57;20482;-83
2021/09/02 09:32:20;;;;;;;5.67;3.77;;;;;;;20.27;65.59;101548.44;5137884;57;22145;-84
2021/09/02 09:37:26;;;;;;;6.42;3.62;;;;;;;20.40;66.07;101564.67;5138295;57;21531;-83
2021/09/02 09:42:32;;;;;;;3.02;2.70;;;;;;;20.61;65.75;101555.25;5138304;57;21217;-81
2021/09/02 09:47:38;;;;;;;4.10;3.70;;;;;;;20.83;62.32;101559.22;5138160;57;21548;-84
2021/09/02 09:52:44;;;;;;;6.45;3.83;;;;;;;20.91;64.82;101560.62;5138187;57;21157;-83
2021/09/02 09:57:49;;;;;;;3.55;2.95;;;;;;;20.97;61.92;101557.77;5138193;57;21153;-85
2021/09/02 10:02:55;;;;;;;4.17;3.80;;;;;;;20.91;62.18;101559.77;5138288;57;21169;-84
2021/09/02 10:08:04;;;;;;;4.25;3.50;;;;;;;21.04;62.56;101558.81;5138253;57;21537;-84
2021/09/02 10:13:09;;;;;;;7.42;4.05;;;;;;;21.07;60.29;101559.84;5138237;57;22142;-85
2021/09/02 10:18:15;;;;;;;6.80;3.98;;;;;;;20.84;61.14;101565.44;5138281;57;21161;-82
2021/09/02 10:23:25;;;;;;;4.00;3.58;;;;;;;20.74;62.51;101564.72;5138170;57;21166;-84
2021/09/02 10:28:35;;;;;;;4.00;3.37;;;;;;;20.70;62.24;101557.47;5138283;57;21607;-82
2021/09/02 10:33:45;;;;;;;3.67;3.37;;;;;;;20.86;63.12;101554.02;5138071;57;21206;-85
2021/09/02 10:38:57;;;;;;;4.20;3.70;;;;;;;21.01;61.07;101549.72;5146932;57;21182;-82
2021/09/02 10:44:05;;;;;;;4.78;3.80;;;;;;;20.96;61.74;101543.97;5173801;57;21163;-83
2021/09/02 10:49:31;;;;;;;3.72;3.30;;;;;;;21.15;58.80;101539.69;5173211;57;21182;-84
2021/09/02 10:54:39;;;;;;;5.53;4.30;;;;;;;21.38;60.20;101542.66;5173817;57;21116;-83
2021/09/02 10:59:52;;;;;;;6.60;3.22;;;;;;;21.45;60.62;101537.45;5173929;57;21159;-85
2021/09/02 11:05:06;;;;;;;3.63;3.33;;;;;;;21.45;59.58;101550.91;5174099;57;21100;-83
2021/09/02 11:10:21;;;;;;;5.83;3.30;;;;;;;21.43;58.98;101544.84;5173774;57;21168;-87
2021/09/02 11:15:27;;;;;;;3.72;3.42;;;;;;;21.55;59.04;101540.31;5173712;57;21155;-81
2021/09/02 11:20:38;;;;;;;5.03;2.98;;;;;;;21.78;58.34;101539.19;5173814;57;21096;-80
2021/09/02 11:25:50;;;;;;;4.03;2.70;;;;;;;21.72;58.27;101539.84;5165174;56;21521;-84
2021/09/02 11:30:56;;;;;;;2.85;2.65;;;;;;;21.71;56.83;101539.50;5155722;56;21474;-87
2021/09/02 11:36:01;;;;;;;3.12;2.77;;;;;;;21.81;57.21;101536.16;5156539;56;21179;-85
2021/09/02 11:41:20;;;;;;;5.92;3.72;;;;;;;21.82;56.69;101548.63;5135292;56;21582;-85
2021/09/02 11:46:26;;;;;;;4.08;2.83;;;;;;;21.90;58.78;101533.80;5120995;56;21162;-80
2021/09/02 11:51:32;;;;;;;6.62;3.17;;;;;;;22.32;58.94;101547.61;5121255;56;21249;-84
2021/09/02 11:56:44;;;;;;;5.95;3.17;;;;;;;22.23;55.73;101549.48;5121277;56;21169;-84
2021/09/02 12:01:52;;;;;;;3.75;3.27;;;;;;;21.93;57.55;101549.63;5122513;56;21196;-85
2021/09/02 12:07:03;;;;;;;4.58;3.30;;;;;;;22.18;58.73;101545.60;5121044;56;21163;-80
2021/09/02 12:12:09;;;;;;;4.08;3.77;;;;;;;22.20;58.21;101545.78;5124137;56;21154;-79
2021/09/02 12:17:15;;;;;;;5.87;3.83;;;;;;;22.16;57.67;101548.97;5122687;56;21145;-86
2021/09/02 12:22:28;;;;;;;4.87;3.65;;;;;;;21.98;58.37;101548.63;5124206;56;21202;-92
2021/09/02 12:27:45;;;;;;;6.42;3.70;;;;;;;21.95;59.38;101546.27;5122780;56;21150;-90
2021/09/02 12:33:10;;;;;;;3.92;3.55;;;;;;;21.91;59.47;101545.42;5122886;56;21173;-83
2021/09/02 12:38:38;;;;;;;3.22;3.02;;;;;;;21.92;59.48;101537.17;5122437;56;21551;-86
2021/09/02 12:44:03;;;;;;;2.98;2.77;;;;;;;22.26;60.03;101537.02;5121933;57;21208;-90
2021/09/02 12:49:12;;;;;;;3.45;3.15;;;;;;;22.51;58.51;101529.72;5121831;57;21153;-86
2021/09/02 12:54:19;;;;;;;3.87;2.67;;;;;;;22.78;59.84;101529.84;5123887;56;21166;-84
2021/09/02 12:59:24;;;;;;;3.10;2.90;;;;;;;23.01;55.94;101533.98;5121575;57;21205;-87
2021/09/02 13:04:30;;;;;;;5.85;2.80;;;;;;;23.23;56.31;101523.73;5121160;56;21196;-84
2021/09/02 13:09:36;;;;;;;3.08;2.87;;;;;;;23.44;55.32;101514.50;5076580;57;22155;-86
2021/09/02 13:14:41;;;;;;;4.28;2.30;;;;;;;23.45;54.89;101523.45;5121874;56;21171;-85
2021/09/02 13:19:47;;;;;;;7.92;2.47;;;;;;;23.42;55.22;101521.94;5122260;56;21535;-87
2021/09/02 13:24:53;;;;;;;2.30;2.20;;;;;;;23.38;55.03;101517.91;5121816;56;21114;-87
2021/09/02 13:29:58;;;;;;;1.72;1.62;;;;;;;23.20;53.22;101513.31;5121273;56;21173;-85
2021/09/02 13:35:06;;;;;;;1.72;1.62;;;;;;;22.95;53.40;101506.34;5120329;56;21106;-85
2021/09/02 13:40:18;;;;;;;2.35;1.70;;;;;;;23.17;53.49;101502.86;5123824;56;21161;-86
2021/09/02 13:45:24;;;;;;;1.85;1.75;;;;;;;23.49;53.90;101498.61;5128729;56;21134;-85
2021/09/02 13:50:30;;;;;;;2.58;1.80;;;;;;;23.76;52.49;101497.25;5018838;58;21165;-85
2021/09/02 13:55:35;;;;;;;11.08;2.60;;;;;;;23.87;50.15;101491.08;5019527;58;21605;-85
2021/09/02 14:00:42;;;;;;;11.12;2.30;;;;;;;23.95;51.16;101492.38;5019938;59;21172;-86
2021/09/02 14:05:48;;;;;;;6.65;1.95;;;;;;;24.05;51.15;101489.73;4958401;59;21246;-85
2021/09/02 14:10:54;;;;;;;4.03;1.55;;;;;;;24.13;49.65;101487.48;4957754;59;21174;-85
2021/09/02 14:16:00;;;;;;;12.05;2.00;;;;;;;24.20;48.14;101489.76;4957768;58;21190;-86
2021/09/02 14:21:07;;;;;;;6.53;1.72;;;;;;;24.23;49.58;101491.26;4957903;58;21130;-85
2021/09/02 14:26:13;;;;;;;7.87;1.85;;;;;;;24.22;50.33;101486.88;4958161;58;21126;-85
2021/09/02 14:31:19;;;;;;;21.05;3.15;;;;;;;24.31;50.40;101484.43;4958374;58;21231;-86
2021/09/02 14:36:25;;;;;;;1.45;1.35;;;;;;;24.38;49.43;101484.87;4958323;58;21669;-86
2021/09/02 14:41:31;;;;;;;2.10;1.10;;;;;;;24.35;49.55;101482.53;4950715;58;21698;-86
2021/09/02 14:46:36;;;;;;;1.57;0.82;;;;;;;24.12;46.62;101487.15;4931973;60;21663;-86
2021/09/02 14:51:43;;;;;;;1.20;1.20;;;;;;;23.89;46.68;101485.83;4930849;59;21119;-86
2021/09/02 14:56:48;;;;;;;2.77;1.40;;;;;;;23.60;46.97;101487.92;5026059;57;21594;-85
2021/09/02 15:01:54;;;;;;;1.30;1.17;;;;;;;23.51;48.60;101476.88;5022012;58;21173;-86
2021/09/02 15:07:00;;;;;;;1.02;1.02;;;;;;;23.58;48.28;101477.81;5012279;58;21199;-86
2021/09/02 15:12:07;;;;;;;1.87;1.52;;;;;;;23.46;46.85;101473.83;5009054;58;21154;-86
2021/09/02 15:17:12;;;;;;;2.05;1.20;;;;;;;23.49;47.35;101477.02;5004917;59;21167;-86
2021/09/02 15:22:18;;;;;;;3.65;1.50;;;;;;;23.65;48.96;101477.94;5030778;58;21545;-87
2021/09/02 15:27:25;;;;;;;1.30;1.20;;;;;;;23.77;47.82;101475.13;5030682;58;21179;-86
2021/09/02 15:32:30;;;;;;;2.52;1.30;;;;;;;23.92;48.43;101480.58;5030926;59;21158;-87
2021/09/02 15:37:36;;;;;;;3.10;1.22;;;;;;;23.98;46.92;101483.40;5028484;58;21190;-86
2021/09/02 15:42:42;;;;;;;2.12;1.75;;;;;;;23.92;47.20;101473.31;4980168;58;21188;-88
2021/09/02 15:47:48;;;;;;;1.25;1.10;;;;;;;23.97;46.85;101468.20;5021784;59;21167;-84
2021/09/02 15:52:54;;;;;;;1.80;1.12;;;;;;;23.96;46.50;101471.92;5030668;59;21167;-86
2021/09/02 15:57:59;;;;;;;2.87;0.85;;;;;;;23.83;46.25;101469.82;5030746;59;21607;-87
2021/09/02 16:03:06;;;;;;;7.72;1.57;;;;;;;23.77;46.47;101470.57;5021175;59;21721;-86
2021/09/02 16:08:11;;;;;;;1.85;1.57;;;;;;;23.70;46.65;101466.91;5030112;59;21916;-85
2021/09/02 16:13:17;;;;;;;12.90;1.80;;;;;;;23.71;46.91;101459.12;4998983;59;21182;-87
2021/09/02 16:18:24;;;;;;;2.50;1.77;;;;;;;23.67;46.87;101461.05;4964906;59;21199;-86
2021/09/02 16:23:30;;;;;;;1.17;1.17;;;;;;;23.57;46.96;101463.13;4951146;60;21199;-89
2021/09/02 16:28:35;;;;;;;1.12;0.85;;;;;;;23.45;47.01;101461.34;4984672;58;21649;-87
2021/09/02 16:33:43;;;;;;;3.95;1.72;;;;;;;23.42;47.07;101463.89;4983825;58;21511;-86
2021/09/02 16:38:49;;;;;;;5.87;1.50;;;;;;;23.29;47.23;101458.25;4994663;58;21570;-85
2021/09/02 16:43:54;;;;;;;1.17;1.10;;;;;;;23.20;47.60;101455.28;4987647;58;21179;-86
2021/09/02 16:49:00;;;;;;;9.13;2.72;;;;;;;23.16;47.93;101452.60;4987156;59;21510;-86
2021/09/02 16:54:07;;;;;;;1.95;0.90;;;;;;;23.09;47.88;101443.52;4950846;60;21517;-86
2021/09/02 16:59:13;;;;;;;1.80;1.50;;;;;;;22.95;47.71;101448.33;4976186;59;21210;-86
2021/09/02 17:04:19;;;;;;;8.90;7.17;;;;;;;22.73;47.54;101444.05;5020407;59;21206;-86
2021/09/02 17:09:25;;;;;;;15.50;9.35;;;;;;;22.53;47.71;101445.47;4994488;58;21190;-86
2021/09/02 17:14:30;;;;;;;3.35;3.15;;;;;;;22.40;48.91;101444.67;4951228;59;21203;-85
2021/09/02 17:19:37;;;;;;;3.55;1.80;;;;;;;22.29;48.94;101452.30;4960142;59;21227;-85
2021/09/02 17:24:43;;;;;;;2.65;2.45;;;;;;;22.20;49.48;101451.45;4938279;59;22571;-86
2021/09/02 17:29:49;;;;;;;5.75;3.00;;;;;;;22.02;49.81;101448.13;4955746;58;21193;-85
2021/09/02 17:34:55;;;;;;;16.02;8.23;;;;;;;21.94;50.96;101449.47;4960780;59;21297;-85
2021/09/02 17:40:00;;;;;;;7.83;4.72;;;;;;;21.96;51.67;101449.63;5003901;59;21628;-82
2021/09/02 17:45:07;;;;;;;6.72;4.83;;;;;;;21.92;52.05;101452.32;5027636;58;21230;-85
2021/09/02 17:50:12;;;;;;;9.15;5.37;;;;;;;21.88;52.24;101450.13;4993254;59;21740;-85
2021/09/02 17:55:18;;;;;;;19.10;8.05;;;;;;;21.77;52.49;101460.75;4982971;59;21544;-84
2021/09/02 18:00:24;;;;;;;27.55;16.05;;;;;;;21.66;53.05;101466.48;5003803;59;22402;-83
2021/09/02 18:05:32;;;;;;;26.75;16.55;;;;;;;21.57;53.40;101459.39;5016241;59;21661;-88
2021/09/02 18:10:39;;;;;;;35.05;15.65;;;;;;;21.47;53.40;101469.49;4979476;59;21216;-84
2021/09/02 18:15:44;;;;;;;48.25;28.52;;;;;;;21.33;53.43;101474.52;5003712;58;21146;-84
2021/09/02 18:20:50;;;;;;;31.45;18.98;;;;;;;21.25;53.73;101479.88;4991953;58;21164;-86
2021/09/02 18:25:55;;;;;;;25.37;14.80;;;;;;;21.17;53.90;101485.72;4998452;58;21139;-85
2021/09/02 18:31:01;;;;;;;33.83;17.35;;;;;;;21.08;54.09;101493.44;5010531;58;21112;-83
2021/09/02 18:36:07;;;;;;;55.48;23.10;;;;;;;20.92;54.14;101492.88;5019152;59;21139;-82
2021/09/02 18:41:16;;;;;;;57.17;24.52;;;;;;;20.76;54.63;101500.88;5004353;58;21173;-84
2021/09/02 18:46:23;;;;;;;23.15;11.28;;;;;;;20.62;55.35;101504.48;5005068;58;21244;-83
2021/09/02 18:51:30;;;;;;;12.90;4.67;;;;;;;20.46;55.64;101507.12;4960974;59;21203;-84
2021/09/02 18:56:35;;;;;;;12.25;3.50;;;;;;;20.29;55.99;101503.45;4990071;59;21192;-87
2021/09/02 19:01:42;;;;;;;5.90;4.75;;;;;;;20.14;56.25;101509.06;5022738;59;21532;-87
2021/09/02 19:06:51;;;;;;;8.08;5.60;;;;;;;20.06;56.73;101511.66;5016699;59;21561;-87
2021/09/02 19:12:03;;;;;;;11.63;6.75;;;;;;;19.99;57.06;101507.44;4983522;58;21223;-88
2021/09/02 19:17:09;;;;;;;7.60;6.28;;;;;;;19.89;57.10;101514.72;4978986;59;21199;-88
2021/09/02 19:22:20;;;;;;;6.00;4.00;;;;;;;19.79;57.08;101512.63;4943455;59;21467;-88
2021/09/02 19:27:26;;;;;;;8.38;3.83;;;;;;;19.60;57.38;101504.73;4983545;59;21191;-87
2021/09/02 19:32:33;;;;;;;5.85;4.47;;;;;;;19.48;58.21;101505.93;4987515;59;21466;-87
2021/09/02 19:37:41;;;;;;;6.67;4.62;;;;;;;19.41;58.51;101497.63;4951392;60;21173;-89
2021/09/02 19:42:47;;;;;;;4.78;3.27;;;;;;;19.33;58.67;101490.36;4999658;59;21166;-88
2021/09/02 19:47:56;;;;;;;4.20;3.80;;;;;;;19.24;58.83;101495.80;5016023;58;21182;-87
2021/09/02 19:53:01;;;;;;;6.30;3.20;;;;;;;19.23;59.28;101495.45;5013565;58;21633;-87
2021/09/02 19:58:16;;;;;;;7.15;4.15;;;;;;;19.09;58.93;101498.16;4989591;58;21263;-85
2021/09/02 20:03:55;;;;;;;9.95;5.75;;;;;;;18.91;59.35;101498.11;5011887;58;21170;-86
2021/09/02 20:09:05;;;;;;;18.40;6.58;;;;;;;18.86;59.87;101496.36;5028981;58;21198;-86
2021/09/02 20:14:12;;;;;;;20.88;9.45;;;;;;;18.78;60.18;101503.47;5051826;58;21173;-86
2021/09/02 20:19:18;;;;;;;31.42;13.65;;;;;;;18.72;60.27;101510.25;5052022;58;21474;-86
2021/09/02 20:24:24;;;;;;;26.35;12.33;;;;;;;18.68;60.52;101512.03;5051613;58;21439;-86
2021/09/02 20:29:30;;;;;;;21.80;10.53;;;;;;;18.59;60.52;101511.09;5051197;58;21632;-85
2021/09/02 20:34:36;;;;;;;14.13;7.25;;;;;;;18.49;61.05;101510.22;5051083;58;21589;-85
2021/09/02 20:39:46;;;;;;;29.55;6.92;;;;;;;18.26;60.75;101513.27;5052110;58;21115;-86
2021/09/02 20:44:57;;;;;;;27.17;7.05;;;;;;;17.98;60.98;101514.66;5048197;58;21166;-86
2021/09/02 20:50:07;;;;;;;19.65;5.87;;;;;;;17.86;61.85;101512.63;5039605;59;21218;-85
2021/09/02 20:55:12;;;;;;;26.63;6.53;;;;;;;17.79;61.86;101512.83;5040675;59;21194;-86
2021/09/02 21:00:18;;;;;;;12.00;5.47;;;;;;;17.64;62.02;101513.75;5095252;57;21634;-88
2021/09/02 21:05:31;;;;;;;11.97;6.43;;;;;;;17.47;62.26;101511.23;5081369;57;21172;-86
2021/09/02 21:10:40;;;;;;;19.73;7.33;;;;;;;17.29;62.40;101506.21;5074815;57;21177;-86
2021/09/02 21:15:48;;;;;;;39.37;17.23;;;;;;;17.03;62.54;101517.06;5074551;57;21115;-86
2021/09/02 21:21:04;;;;;;;42.57;17.20;;;;;;;16.66;62.78;101520.78;5063812;58;21225;-86
2021/09/02 21:26:11;;;;;;;31.83;15.30;;;;;;;16.59;63.99;101519.61;5096919;57;21161;-84
2021/09/02 21:31:53;;;;;;;29.53;13.67;;;;;;;16.41;64.00;101525.56;5115545;57;21615;-86
2021/09/02 21:37:00;;;;;;;35.03;16.43;;;;;;;16.37;64.66;101516.11;5112035;57;21103;-86
2021/09/02 21:42:10;;;;;;;29.00;14.30;;;;;;;16.50;65.28;101519.91;5149523;57;21227;-84
2021/09/02 21:47:18;;;;;;;22.70;12.20;;;;;;;16.61;64.93;101518.50;5145030;57;21166;-86
2021/09/02 21:52:30;;;;;;;19.70;11.17;;;;;;;16.37;64.56;101513.44;5138486;57;21110;-86
2021/09/02 21:57:38;;;;;;;39.80;21.33;;;;;;;16.35;65.29;101523.41;5137979;57;21180;-84
2021/09/02 22:02:44;;;;;;;50.60;28.20;;;;;;;16.23;65.29;101526.28;5103347;57;21166;-87
2021/09/02 22:07:51;;;;;;;37.77;20.40;;;;;;;16.13;65.91;101522.23;5108469;57;21775;-87
2021/09/02 22:12:56;;;;;;;312.07;191.67;;;;;;;15.97;66.21;101517.83;5089479;57;21169;-88
2021/09/02 22:18:24;;;;;;;31.87;17.80;;;;;;;15.81;66.54;101508.45;5094382;57;21141;-85
2021/09/02 22:23:38;;;;;;;20.73;12.57;;;;;;;15.82;67.46;101505.30;5086897;57;21162;-85
2021/09/02 22:28:45;;;;;;;17.77;7.87;;;;;;;15.98;67.67;101501.70;5097467;57;21137;-85
2021/09/02 22:33:54;;;;;;;15.90;8.07;;;;;;;16.07;67.50;101498.23;5096905;57;21160;-85
2021/09/02 22:39:02;;;;;;;9.07;4.60;;;;;;;16.17;67.58;101495.16;5093311;57;21736;-88
2021/09/02 22:44:09;;;;;;;10.57;6.77;;;;;;;16.23;67.48;101487.09;5096426;57;21110;-85
2021/09/02 22:49:16;;;;;;;11.27;5.87;;;;;;;16.24;67.10;101483.94;5083389;57;21560;-86
2021/09/02 22:54:25;;;;;;;11.63;5.83;;;;;;;16.17;66.81;101480.97;5065479;57;21244;-86
2021/09/02 22:59:33;;;;;;;7.47;4.90;;;;;;;16.06;66.77;101475.67;5102530;57;21532;-86
2021/09/02 23:04:38;;;;;;;8.07;4.90;;;;;;;15.93;66.64;101467.03;5143895;57;22164;-85
2021/09/02 23:09:56;;;;;;;8.63;3.90;;;;;;;15.79;66.64;101465.05;5143800;57;21167;-85
2021/09/02 23:15:15;;;;;;;4.53;4.13;;;;;;;15.70;66.82;101460.50;5143151;57;21202;-88
2021/09/02 23:20:22;;;;;;;5.77;3.17;;;;;;;15.62;66.87;101458.95;5143918;57;22206;-87
2021/09/02 23:25:30;;;;;;;8.73;3.70;;;;;;;15.62;66.92;101457.61;5143979;57;21178;-89
2021/09/02 23:30:37;;;;;;;6.87;4.63;;;;;;;15.49;66.28;101448.44;5143764;57;21224;-88
2021/09/02 23:35:43;;;;;;;10.50;5.50;;;;;;;15.34;66.66;101445.72;5143958;57;21198;-87
2021/09/02 23:40:51;;;;;;;8.00;5.80;;;;;;;15.33;67.54;101438.69;5143933;57;21212;-89
2021/09/02 23:45:57;;;;;;;5.80;4.70;;;;;;;15.27;67.34;101427.70;5143828;57;21163;-87